Time;durP1;ratioP1;P1;durP2;ratioP2;P2;SDS_P1;SDS_P2;PMS_P1;PMS_P2;Temp;Humidity;BMP_temperature;BMP_pressure;BME280_temperature;BME280_humidity;BME280_pressure;Samples;Min_cycle;Max_cycle;Signal;HPM_P1;HPM_P2
2021/07/28 00:01:44;;;;;;;;;;;;;;;;;;;;;
2021/07/28 00:17:58;;;;;;;16.80;13.58;;;;;;;20.36;100.00;101109.61;1310307;106;21582;-89
2021/07/28 01:20:58;;;;;;;;;;;;;;;;;;;;;
2021/07/28 01:34:15;;;;;;;;;;;;;;;;;;;;;
2021/07/28 01:41:49;;;;;;;;;;;;;;;;;;;;;
2021/07/28 02:08:48;;;;;;;;;;;;;;;;;;;;;
2021/07/28 02:22:53;;;;;;;;;;;;;;;;;;;;;
2021/07/28 02:25:31;;;;;;;;;;;;;;;;;;;;;
2021/07/28 02:33:27;;;;;;;;;;;;;;;;;;;;;
2021/07/28 02:38:13;;;;;;;;;;;;;;;;;;;;;
2021/07/28 02:41:22;;;;;;;;;;;;;;;;;;;;;
2021/07/28 02:44:31;;;;;;;24.52;17.85;;;;;;;20.05;100.00;101110.31;1181512;119;21414;-89
2021/07/28 02:47:55;;;;;;;;;;;;;;;;;;;;;
2021/07/28 02:50:24;;;;;;;40.83;18.12;;;;;;;20.12;100.00;101111.78;1182049;112;21279;-91
2021/07/28 02:52:52;;;;;;;80.03;21.50;;;;;;;20.17;100.00;101109.48;1273157;103;21290;-89
2021/07/28 02:55:19;;;;;;;48.30;19.27;;;;;;;20.22;100.00;101110.30;1399612;96;21186;-91
2021/07/28 02:57:50;;;;;;;40.40;19.17;;;;;;;20.33;100.00;101113.91;1478722;95;21566;-94
2021/07/28 03:00:26;;;;;;;47.80;18.60;;;;;;;20.46;100.00;101112.91;1462232;94;21166;-93
2021/07/28 03:03:08;;;;;;;;;;;;;;;;;;;;;
2021/07/28 03:05:42;;;;;;;;;;;;;;;;;;;;;
2021/07/28 03:08:18;;;;;;;53.45;19.77;;;;;;;20.71;100.00;101114.14;1463413;96;21139;-91
2021/07/28 03:11:15;;;;;;;58.75;20.92;;;;;;;20.82;100.00;101114.81;1429492;96;21255;-91
2021/07/28 03:13:47;;;;;;;29.05;18.00;;;;;;;20.94;100.00;101108.97;1407924;99;21198;-89
2021/07/28 03:16:15;;;;;;;40.80;19.10;;;;;;;21.03;100.00;101111.59;1389933;102;21239;-91
2021/07/28 03:18:52;;;;;;;32.53;18.90;;;;;;;21.07;100.00;101113.72;1402190;100;21165;-91
2021/07/28 03:21:26;;;;;;;29.10;18.85;;;;;;;21.11;100.00;101108.39;1403299;98;21592;-89
2021/07/28 03:23:53;;;;;;;38.88;18.23;;;;;;;21.08;100.00;101114.53;1482444;93;21112;-92
2021/07/28 03:26:20;;;;;;;28.65;18.65;;;;;;;21.05;100.00;101110.41;1549929;91;21080;-91
2021/07/28 03:28:48;;;;;;;32.53;18.82;;;;;;;21.06;100.00;101111.25;1533145;92;21282;-91
2021/07/28 03:31:15;;;;;;;34.18;18.20;;;;;;;21.08;100.00;101116.70;1529635;89;21755;-91
2021/07/28 03:33:42;;;;;;;23.02;17.35;;;;;;;21.14;100.00;101119.16;1621419;86;21215;-90
2021/07/28 03:36:11;;;;;;;22.50;16.93;;;;;;;21.18;100.00;101113.83;1633155;86;21666;-91
2021/07/28 03:38:38;;;;;;;25.60;17.00;;;;;;;21.22;100.00;101120.45;1711690;82;21061;-92
2021/07/28 03:41:05;;;;;;;20.77;16.50;;;;;;;21.27;100.00;101115.44;1693055;82;21822;-91
2021/07/28 03:43:35;;;;;;;20.57;15.50;;;;;;;21.33;100.00;101111.28;1714650;82;21517;-91
2021/07/28 03:46:02;;;;;;;20.80;16.10;;;;;;;21.39;100.00;101110.57;1691151;81;21088;-91
2021/07/28 03:48:33;;;;;;;24.98;15.63;;;;;;;21.47;100.00;101103.57;1715594;80;21123;-91
2021/07/28 03:50:58;;;;;;;19.40;15.25;;;;;;;21.54;100.00;101104.03;1718187;81;21123;-91
2021/07/28 03:53:25;;;;;;;27.45;16.48;;;;;;;21.62;100.00;101101.03;1718491;81;21116;-89
2021/07/28 03:55:53;;;;;;;20.50;15.28;;;;;;;21.69;100.00;101100.64;1722202;81;21072;-91
2021/07/28 03:58:20;;;;;;;26.20;16.35;;;;;;;21.78;100.00;101105.37;1720363;81;21104;-92
2021/07/28 04:00:47;;;;;;;25.05;15.23;;;;;;;21.86;100.00;101109.28;1710091;82;21083;-92
2021/07/28 04:03:14;;;;;;;23.57;15.65;;;;;;;21.93;100.00;101103.58;1698169;83;21073;-91
2021/07/28 04:05:42;;;;;;;19.27;14.87;;;;;;;22.05;100.00;101107.95;1701919;83;21147;-90
2021/07/28 04:08:09;;;;;;;21.95;15.98;;;;;;;22.14;100.00;101106.08;1692543;83;21050;-91
2021/07/28 04:10:37;;;;;;;22.05;15.58;;;;;;;22.21;100.00;101101.17;1694537;83;21066;-91
2021/07/28 04:13:04;;;;;;;25.00;16.05;;;;;;;22.30;100.00;101101.09;1681486;82;21145;-92
2021/07/28 04:15:33;;;;;;;24.63;15.25;;;;;;;22.38;100.00;101095.71;1733426;81;21046;-91
2021/07/28 04:18:00;;;;;;;27.35;15.72;;;;;;;22.48;100.00;101097.63;1715627;81;21096;-87
2021/07/28 04:20:27;;;;;;;23.73;15.50;;;;;;;22.58;100.00;101097.87;1719474;82;21038;-89
2021/07/28 04:22:54;;;;;;;24.87;14.53;;;;;;;22.64;100.00;101097.13;1718887;81;21037;-90
2021/07/28 04:25:21;;;;;;;20.77;14.43;;;;;;;22.71;100.00;101096.70;1720369;82;21094;-87
2021/07/28 04:27:48;;;;;;;19.17;13.72;;;;;;;22.76;100.00;101098.81;1714824;83;21041;-87
2021/07/28 04:30:16;;;;;;;19.20;14.98;;;;;;;22.81;100.00;101098.59;1719018;82;21046;-88
2021/07/28 04:32:43;;;;;;;21.90;14.03;;;;;;;22.89;100.00;101090.20;1698446;83;20986;-87
2021/07/28 04:35:10;;;;;;;21.52;14.18;;;;;;;22.97;100.00;101087.44;1678724;82;21226;-89
2021/07/28 04:37:37;;;;;;;18.48;14.10;;;;;;;23.05;100.00;101085.16;1691927;82;21133;-88
2021/07/28 04:40:06;;;;;;;20.50;14.83;;;;;;;23.12;100.00;101082.07;1720523;80;21074;-89
2021/07/28 04:42:33;;;;;;;22.45;14.03;;;;;;;23.20;100.00;101081.18;1623952;86;21083;-89
2021/07/28 04:45:00;;;;;;;18.62;12.95;;;;;;;23.27;100.00;101081.58;1701541;82;21137;-89
2021/07/28 04:47:28;;;;;;;31.17;13.50;;;;;;;23.36;100.00;101072.14;1728328;81;20966;-88
2021/07/28 04:50:05;;;;;;;23.00;13.08;;;;;;;23.42;100.00;101070.88;1700562;81;21088;-90
2021/07/28 04:52:33;;;;;;;22.52;13.83;;;;;;;23.51;100.00;101068.10;1728126;80;21080;-87
2021/07/28 04:55:00;;;;;;;21.30;13.53;;;;;;;23.56;100.00;101059.88;1721171;81;21374;-87
2021/07/28 04:57:27;;;;;;;26.95;14.00;;;;;;;23.65;100.00;101063.73;1717844;81;21097;-90
2021/07/28 05:00:08;;;;;;;26.90;14.38;;;;;;;23.72;100.00;101064.61;1741894;81;21233;-90
2021/07/28 05:02:50;;;;;;;18.65;14.13;;;;;;;23.80;100.00;101059.16;1712024;82;21034;-93
2021/07/28 05:05:14;;;;;;;29.45;15.75;;;;;;;23.91;100.00;101056.48;1721784;82;21559;-89
2021/07/28 05:07:41;;;;;;;21.30;14.58;;;;;;;24.03;100.00;101056.80;1716783;82;21071;-92
2021/07/28 05:10:11;;;;;;;23.65;14.20;;;;;;;24.12;100.00;101055.63;1742764;80;21065;-91
2021/07/28 05:12:38;;;;;;;21.40;14.28;;;;;;;24.20;100.00;101059.47;1720164;81;21109;-87
2021/07/28 05:15:06;;;;;;;27.05;14.25;;;;;;;24.30;100.00;101063.11;1726028;82;21049;-92
2021/07/28 05:17:33;;;;;;;18.25;13.30;;;;;;;24.38;100.00;101060.28;1713703;82;21107;-90
2021/07/28 05:20:00;;;;;;;20.52;14.35;;;;;;;24.46;100.00;101060.65;1699482;82;21760;-91
2021/07/28 05:22:28;;;;;;;29.67;14.68;;;;;;;24.51;100.00;101059.54;1700106;82;20994;-91
2021/07/28 05:24:56;;;;;;;24.87;14.30;;;;;;;24.57;100.00;101057.41;1684736;82;21016;-90
2021/07/28 05:27:23;;;;;;;22.07;14.38;;;;;;;24.65;100.00;101056.92;1685080;82;21504;-91
2021/07/28 05:29:50;;;;;;;23.32;15.08;;;;;;;24.73;100.00;101050.13;1710368;82;21081;-90
2021/07/28 05:32:17;;;;;;;23.70;14.58;;;;;;;24.80;100.00;101045.66;1658102;83;21002;-93
2021/07/28 05:34:47;;;;;;;21.17;14.28;;;;;;;24.87;100.00;101037.70;1676522;84;21052;-90
2021/07/28 05:37:14;;;;;;;25.88;14.73;;;;;;;24.92;100.00;101042.42;1652440;84;21120;-86
2021/07/28 05:39:45;;;;;;;23.75;14.45;;;;;;;24.98;100.00;101038.95;1661432;84;21002;-91
2021/07/28 05:42:13;;;;;;;18.37;13.98;;;;;;;25.04;100.00;101031.48;1671414;84;21028;-87
2021/07/28 05:44:40;;;;;;;26.12;14.80;;;;;;;25.13;100.00;101039.59;1678480;83;21703;-91
2021/07/28 05:47:08;;;;;;;26.30;15.80;;;;;;;25.22;100.00;101032.75;1694801;83;21399;-84
2021/07/28 05:49:38;;;;;;;29.85;16.95;;;;;;;25.29;100.00;101031.75;1723678;82;21106;-90
2021/07/28 05:52:24;;;;;;;;;;;;;;;;;;;;;
2021/07/28 05:59:18;;;;;;;35.58;15.72;;;;;;;25.49;100.00;101026.47;1701413;82;20990;-87
2021/07/28 06:01:45;;;;;;;29.18;16.27;;;;;;;25.57;100.00;101015.28;1729534;80;21010;-88
2021/07/28 06:04:12;;;;;;;32.78;16.50;;;;;;;25.64;100.00;101021.44;1687188;83;21060;-85
2021/07/28 06:06:39;;;;;;;22.93;15.80;;;;;;;25.73;100.00;101026.87;1686500;83;21033;-88
2021/07/28 06:09:06;;;;;;;27.37;16.23;;;;;;;25.80;100.00;101021.52;1688458;82;21044;-87
2021/07/28 06:11:33;;;;;;;25.97;14.93;;;;;;;25.88;100.00;101011.96;1699208;82;21098;-85
2021/07/28 06:14:00;;;;;;;23.85;14.90;;;;;;;25.95;100.00;101018.13;1709438;82;21144;-90
2021/07/28 06:16:29;;;;;;;34.40;15.90;;;;;;;26.03;100.00;101012.27;1707898;82;21148;-87
2021/07/28 06:18:56;;;;;;;27.02;16.00;;;;;;;26.07;100.00;101016.98;1701333;83;20982;-90
2021/07/28 06:21:24;;;;;;;26.07;15.05;;;;;;;26.13;100.00;101006.83;1704449;83;20993;-90
2021/07/28 06:23:51;;;;;;;28.20;14.80;;;;;;;26.22;100.00;101006.59;1678616;82;21077;-86
2021/07/28 06:26:18;;;;;;;24.32;14.30;;;;;;;26.32;100.00;101004.81;1745320;80;21009;-89
2021/07/28 06:28:46;;;;;;;23.50;13.93;;;;;;;26.38;100.00;100998.12;1739517;80;21454;-90
2021/07/28 06:31:13;;;;;;;17.82;12.90;;;;;;;26.44;100.00;100997.80;1720711;82;21005;-88
2021/07/28 06:33:40;;;;;;;19.32;12.37;;;;;;;26.52;100.00;101002.87;1743253;81;21651;-87
2021/07/28 06:36:07;;;;;;;16.23;12.75;;;;;;;26.60;100.00;100999.16;1741578;81;21129;-88
2021/07/28 06:38:35;;;;;;;22.13;13.80;;;;;;;26.69;100.00;101000.55;1724492;80;21082;-87
2021/07/28 06:41:02;;;;;;;21.17;12.58;;;;;;;26.78;100.00;100997.13;1700767;81;21022;-88
2021/07/28 06:43:30;;;;;;;19.80;12.78;;;;;;;26.88;100.00;100991.34;1694273;83;21517;-87
2021/07/28 06:45:58;;;;;;;14.75;12.40;;;;;;;26.97;100.00;100998.05;1709487;82;21060;-87
2021/07/28 06:48:26;;;;;;;19.10;13.15;;;;;;;27.04;100.00;100996.14;1711314;82;21216;-85
2021/07/28 06:50:54;;;;;;;15.10;12.00;;;;;;;27.12;100.00;100991.06;1707498;83;21068;-86
2021/07/28 06:53:21;;;;;;;19.02;13.45;;;;;;;27.17;100.00;100987.22;1660128;85;21979;-86
2021/07/28 06:55:49;;;;;;;16.87;13.85;;;;;;;27.25;100.00;100990.16;1663138;83;21112;-86
2021/07/28 06:58:16;;;;;;;14.45;12.43;;;;;;;27.30;100.00;100982.29;1651497;85;21564;-90
2021/07/28 07:00:43;;;;;;;19.52;13.45;;;;;;;27.39;100.00;100983.66;1654087;86;21157;-86
2021/07/28 07:03:10;;;;;;;17.35;13.68;;;;;;;27.47;100.00;100973.25;1662239;85;21019;-86
2021/07/28 07:05:37;;;;;;;19.90;14.38;;;;;;;27.57;100.00;100976.75;1673545;85;21514;-84
2021/07/28 07:08:06;;;;;;;24.55;14.90;;;;;;;27.67;100.00;100971.72;1675386;85;21105;-86
2021/07/28 07:10:33;;;;;;;19.02;14.05;;;;;;;27.77;100.00;100969.03;1644876;86;21138;-91
2021/07/28 07:13:04;;;;;;;20.23;12.55;;;;;;;27.85;100.00;100976.77;1701298;83;21192;-88
2021/07/28 07:15:31;;;;;;;21.80;13.58;;;;;;;27.95;100.00;100978.42;1709952;81;21160;-87
2021/07/28 07:17:59;;;;;;;15.90;11.40;;;;;;;28.05;100.00;100983.77;1734647;81;21452;-89
2021/07/28 07:20:26;;;;;;;13.10;10.90;;;;;;;28.15;100.00;100981.44;1736223;81;20985;-88
2021/07/28 07:22:53;;;;;;;18.73;12.47;;;;;;;28.25;100.00;100977.69;1741029;81;22582;-89
2021/07/28 07:25:20;;;;;;;16.27;11.55;;;;;;;28.36;100.00;100984.17;1732972;81;21147;-87
2021/07/28 07:27:47;;;;;;;17.52;12.65;;;;;;;28.46;100.00;100983.63;1736775;81;21254;-84
2021/07/28 07:30:14;;;;;;;19.98;12.40;;;;;;;28.54;100.00;100978.46;1712388;81;21567;-85
2021/07/28 07:32:42;;;;;;;16.55;12.00;;;;;;;28.63;100.00;100980.62;1730794;81;21024;-86
2021/07/28 07:35:09;;;;;;;23.20;12.07;;;;;;;28.75;100.00;100979.86;1736130;81;21068;-84
2021/07/28 07:37:36;;;;;;;17.12;13.22;;;;;;;28.86;100.00;100976.91;1741337;81;21153;-84
2021/07/28 07:40:05;;;;;;;17.50;11.83;;;;;;;28.97;100.00;100973.45;1736590;81;21069;-85
2021/07/28 07:42:32;;;;;;;18.75;11.48;;;;;;;29.08;100.00;100985.25;1715087;81;21033;-86
2021/07/28 07:44:59;;;;;;;15.25;10.70;;;;;;;29.16;100.00;100983.57;1738760;80;21045;-88
2021/07/28 07:47:26;;;;;;;19.37;11.33;;;;;;;29.22;100.00;100990.68;1742676;81;21496;-86
2021/07/28 07:49:53;;;;;;;22.07;11.30;;;;;;;29.33;100.00;100985.61;1741105;82;21069;-89
2021/07/28 07:52:20;;;;;;;15.68;11.10;;;;;;;29.46;100.00;100986.71;1716919;82;21016;-87
2021/07/28 07:54:47;;;;;;;20.10;11.70;;;;;;;29.56;100.00;100996.34;1705968;81;21566;-90
2021/07/28 07:57:14;;;;;;;16.70;10.50;;;;;;;29.64;100.00;100991.16;1724698;82;21056;-89
2021/07/28 07:59:42;;;;;;;16.52;10.75;;;;;;;29.73;100.00;100996.98;1714976;82;21075;-88
2021/07/28 08:02:09;;;;;;;17.48;9.78;;;;;;;29.83;100.00;100995.04;1715994;81;21778;-87
2021/07/28 08:04:39;;;;;;;13.53;10.18;;;;;;;29.94;100.00;100999.62;1707846;82;20961;-87
2021/07/28 08:07:06;;;;;;;23.35;9.88;;;;;;;30.04;100.00;100993.64;1725075;81;21052;-87
2021/07/28 08:09:33;;;;;;;10.95;8.93;;;;;;;30.15;100.00;100992.81;1716248;82;21526;-88
2021/07/28 08:12:00;;;;;;;15.58;9.60;;;;;;;30.24;100.00;100997.81;1703476;82;21052;-85
2021/07/28 08:14:27;;;;;;;15.78;9.15;;;;;;;30.31;100.00;100997.14;1722055;81;21190;-87
2021/07/28 08:16:55;;;;;;;13.50;9.25;;;;;;;30.35;100.00;100996.43;1703925;81;21028;-87
2021/07/28 08:19:22;;;;;;;19.98;9.50;;;;;;;30.44;100.00;100994.17;1718836;82;21042;-87
2021/07/28 08:21:49;;;;;;;17.37;9.35;;;;;;;30.52;100.00;100988.44;1724156;81;20969;-89
2021/07/28 08:24:16;;;;;;;12.75;8.80;;;;;;;30.61;100.00;100992.09;1708876;83;21036;-88
2021/07/28 08:26:44;;;;;;;20.20;9.18;;;;;;;30.70;100.00;100991.99;1716601;81;21162;-91
2021/07/28 08:29:11;;;;;;;17.17;9.23;;;;;;;30.78;100.00;100988.08;1706606;82;21060;-88
2021/07/28 08:31:38;;;;;;;12.35;7.80;;;;;;;30.86;98.16;100982.31;1720883;81;20991;-86
2021/07/28 08:34:05;;;;;;;9.83;8.53;;;;;;;30.96;94.45;100982.49;1705473;82;21051;-91
2021/07/28 08:36:32;;;;;;;17.05;8.78;;;;;;;31.11;94.33;100983.83;1698098;81;21025;-91
2021/07/28 08:39:01;;;;;;;11.30;8.65;;;;;;;31.25;89.99;100978.94;1728587;81;21611;-87
2021/07/28 08:41:29;;;;;;;11.85;8.40;;;;;;;31.33;86.13;100979.87;1731460;82;21058;-89
2021/07/28 08:43:58;;;;;;;11.22;8.88;;;;;;;31.31;76.06;100980.64;1668398;84;21069;-89
2021/07/28 08:46:26;;;;;;;12.85;8.95;;;;;;;31.31;78.32;100980.64;1654218;85;21126;-90
2021/07/28 08:48:55;;;;;;;11.83;8.23;;;;;;;31.37;76.16;100979.66;1670714;84;21068;-91
2021/07/28 08:51:27;;;;;;;14.50;7.92;;;;;;;31.41;69.02;100980.81;1629987;86;21121;-87
2021/07/28 08:53:54;;;;;;;12.05;8.70;;;;;;;31.35;64.92;100983.66;1650427;85;20970;-89
2021/07/28 08:56:23;;;;;;;20.12;10.15;;;;;;;31.21;58.59;100989.92;1669781;84;21469;-90
2021/07/28 08:58:50;;;;;;;14.07;8.95;;;;;;;31.16;71.82;100983.93;1662220;83;21588;-90
2021/07/28 09:01:18;;;;;;;22.85;10.85;;;;;;;31.27;81.20;100985.70;1703669;83;21045;-88
2021/07/28 09:03:54;;;;;;;18.05;9.38;;;;;;;31.46;78.14;100976.03;1683360;83;21859;-93
2021/07/28 09:06:29;;;;;;;19.00;9.33;;;;;;;31.61;71.70;100979.45;1703893;82;21069;-90
2021/07/28 09:09:02;;;;;;;23.55;10.60;;;;;;;31.75;80.57;100972.70;1703433;83;21076;-88
2021/07/28 09:11:29;;;;;;;17.12;10.05;;;;;;;31.93;80.99;100969.41;1703919;82;21116;-88
2021/07/28 09:14:17;;;;;;;14.70;9.83;;;;;;;32.10;80.59;100960.73;1702282;83;21052;-88
2021/07/28 09:16:45;;;;;;;12.73;9.50;;;;;;;32.31;79.45;100966.39;1702097;83;21038;-88
2021/07/28 09:19:12;;;;;;;16.87;9.30;;;;;;;32.50;70.34;100960.63;1702170;83;21058;-89
2021/07/28 09:21:39;;;;;;;12.82;8.60;;;;;;;32.55;59.97;100961.50;1701933;83;21500;-89
2021/07/28 09:26:44;;;;;;;21.85;9.93;;;;;;;32.46;54.07;100948.20;1704346;82;21076;-93
2021/07/28 09:29:18;;;;;;;18.85;9.75;;;;;;;32.41;51.21;100948.16;1680173;84;21188;-87
2021/07/28 09:31:51;;;;;;;16.45;9.98;;;;;;;32.33;51.90;100948.63;1702649;83;21472;-89
2021/07/28 09:34:24;;;;;;;19.02;10.70;;;;;;;32.20;54.07;100945.76;1704586;83;21065;-88
2021/07/28 09:37:00;;;;;;;13.32;9.30;;;;;;;32.07;56.51;100945.61;1685612;83;21093;-89
2021/07/28 09:39:39;;;;;;;22.85;10.55;;;;;;;32.00;58.25;100944.99;1682362;84;21066;-89
2021/07/28 09:42:28;;;;;;;18.35;10.50;;;;;;;32.04;65.58;100952.32;1681850;83;21572;-90
2021/07/28 09:44:59;;;;;;;20.17;11.00;;;;;;;32.17;63.73;100943.04;1683991;83;21155;-89
2021/07/28 09:47:30;;;;;;;13.88;9.85;;;;;;;32.37;66.88;100946.52;1681083;84;21187;-86
2021/07/28 09:50:08;;;;;;;25.82;11.00;;;;;;;32.55;63.62;100938.59;1680483;83;21018;-90
2021/07/28 09:52:54;;;;;;;;;;;;;;;;;;;;;
2021/07/28 09:58:13;;;;;;;;;;;;;;;;;;;;;
2021/07/28 10:00:50;;;;;;;;;;;;;;;;;;;;;
2021/07/28 10:03:29;;;;;;;;;;;;;;;;;;;;;
2021/07/28 10:06:10;;;;;;;16.07;10.55;;;;;;;33.34;53.74;100920.11;1309143;107;21849;-88
2021/07/28 10:08:57;;;;;;;;;;;;;;;;;;;;;
2021/07/28 10:12:15;;;;;;;25.43;12.18;;;;;;;33.35;62.51;100903.37;1292679;109;21215;-91
2021/07/28 10:15:28;;;;;;;;;;;;;;;;;;;;;
2021/07/28 10:31:22;;;;;;;;;;;;;;;;;;;;;
2021/07/28 10:33:56;;;;;;;17.48;9.93;;;;;;;32.64;54.93;100906.62;1290335;109;20186;-91
2021/07/28 10:37:02;;;;;;;;;;;;;;;;;;;;;
2021/07/28 10:39:43;;;;;;;67.87;11.63;;;;;;;32.52;47.78;100907.31;1344910;102;21156;-85
2021/07/28 10:42:17;;;;;;;131.30;15.55;;;;;;;32.47;50.23;100911.31;1487662;89;21141;-88
2021/07/28 10:45:04;;;;;;;83.52;13.55;;;;;;;32.45;50.64;100910.20;1666903;84;21114;-88
2021/07/28 10:47:46;;;;;;;105.40;14.78;;;;;;;32.53;52.55;100904.34;1664731;84;21106;-86
2021/07/28 10:50:30;;;;;;;136.07;16.73;;;;;;;32.75;54.96;100908.03;1691012;83;21021;-81
2021/07/28 10:53:03;;;;;;;103.22;13.00;;;;;;;32.91;53.43;100898.22;1687020;84;21504;-88
2021/07/28 10:55:38;;;;;;;61.53;11.40;;;;;;;32.97;51.41;100903.92;1662170;84;21087;-83
2021/07/28 10:58:10;;;;;;;38.75;11.08;;;;;;;32.96;53.05;100904.98;1691758;84;21200;-84
2021/07/28 11:00:47;;;;;;;23.52;9.55;;;;;;;32.85;48.15;100907.60;1672391;83;20946;-86
2021/07/28 11:03:17;;;;;;;20.72;10.40;;;;;;;32.71;51.31;100905.88;1720805;80;21056;-84
2021/07/28 11:05:52;;;;;;;17.32;9.60;;;;;;;32.66;49.44;100897.72;1706569;83;21491;-85
2021/07/28 11:08:20;;;;;;;21.33;10.03;;;;;;;32.65;54.19;100901.48;1685416;83;21026;-86
2021/07/28 11:10:54;;;;;;;14.45;9.95;;;;;;;32.57;54.40;100903.30;1690978;83;21109;-87
2021/07/28 11:13:28;;;;;;;22.52;9.88;;;;;;;32.46;55.58;100898.91;1654391;85;21052;-87
2021/07/28 11:16:02;;;;;;;17.40;10.45;;;;;;;32.35;54.87;100898.00;1639929;86;21122;-85
2021/07/28 11:18:34;;;;;;;39.67;11.45;;;;;;;32.18;56.52;100892.67;1626216;85;21097;-88
2021/07/28 11:21:14;;;;;;;30.23;10.95;;;;;;;32.05;58.39;100883.94;1655336;85;21021;-85
2021/07/28 11:23:51;;;;;;;20.00;10.68;;;;;;;31.91;58.26;100891.59;1645713;86;21807;-86
2021/07/28 11:26:25;;;;;;;23.67;10.93;;;;;;;31.71;57.04;100887.33;1686020;82;21132;-86
2021/07/28 11:28:56;;;;;;;23.20;11.10;;;;;;;31.52;59.46;100885.45;1655787;86;21068;-87
2021/07/28 11:31:29;;;;;;;27.77;12.43;;;;;;;31.42;66.83;100885.59;1655235;85;20995;-87
2021/07/28 11:34:09;;;;;;;20.90;11.53;;;;;;;31.41;70.48;100888.52;1678737;82;21003;-86
2021/07/28 11:36:38;;;;;;;30.27;12.25;;;;;;;31.45;72.00;100880.24;1661526;85;21085;-89
2021/07/28 11:39:15;;;;;;;23.18;11.25;;;;;;;31.59;74.08;100884.73;1701000;83;21167;-86
2021/07/28 11:41:43;;;;;;;26.80;11.40;;;;;;;31.72;75.38;100876.30;1684546;84;21049;-85
2021/07/28 11:44:12;;;;;;;18.30;11.15;;;;;;;31.81;76.99;100869.93;1654607;85;21093;-83
2021/07/28 11:46:39;;;;;;;34.10;12.78;;;;;;;31.90;74.93;100873.00;1642522;85;21069;-85
2021/07/28 11:49:08;;;;;;;26.90;11.18;;;;;;;31.91;74.67;100871.39;1653239;84;21161;-87
2021/07/28 11:51:36;;;;;;;24.85;12.10;;;;;;;31.91;73.97;100871.95;1683234;82;21014;-86
2021/07/28 11:54:17;;;;;;;19.10;10.45;;;;;;;31.87;73.28;100867.59;1671185;84;21495;-81
2021/07/28 11:56:52;;;;;;;24.20;10.95;;;;;;;31.86;75.77;100862.45;1625113;87;21064;-84
2021/07/28 11:59:28;;;;;;;17.42;10.35;;;;;;;31.85;75.43;100863.54;1632411;87;21133;-86
2021/07/28 12:01:58;;;;;;;17.48;10.48;;;;;;;31.81;71.08;100867.23;1681142;84;21165;-86
2021/07/28 12:04:28;;;;;;;18.92;11.22;;;;;;;31.74;70.41;100863.41;1662652;83;21173;-87
2021/07/28 12:07:00;;;;;;;15.25;10.38;;;;;;;31.66;74.23;100852.23;1705086;83;21040;-85
2021/07/28 12:09:28;;;;;;;18.35;10.15;;;;;;;31.53;75.58;100862.32;1681547;83;21057;-85
2021/07/28 12:12:20;;;;;;;23.27;11.00;;;;;;;31.39;79.99;100857.84;1692919;83;21048;-84
2021/07/28 12:14:49;;;;;;;16.75;10.20;;;;;;;31.30;83.48;100855.28;1730091;81;21141;-85
2021/07/28 12:17:21;;;;;;;15.93;10.38;;;;;;;31.24;83.80;100846.36;1744683;81;21081;-86
2021/07/28 12:20:00;;;;;;;18.15;11.97;;;;;;;31.21;84.50;100854.11;1742280;81;21030;-85
2021/07/28 12:22:34;;;;;;;19.82;11.20;;;;;;;31.20;93.32;100852.48;1722231;81;21446;-86
2021/07/28 12:25:20;;;;;;;18.65;10.60;;;;;;;31.25;92.46;100843.92;1736933;80;21034;-86
2021/07/28 12:28:01;;;;;;;18.55;10.60;;;;;;;31.34;97.50;100844.33;1698231;82;21496;-86
2021/07/28 12:30:38;;;;;;;17.27;10.43;;;;;;;31.48;96.81;100839.40;1743700;81;21013;-85
2021/07/28 12:33:10;;;;;;;15.78;10.15;;;;;;;31.62;92.39;100833.91;1743949;81;21033;-86
2021/07/28 12:35:48;;;;;;;18.05;9.98;;;;;;;31.73;87.73;100828.14;1725919;82;21769;-85
2021/07/28 12:38:23;;;;;;;22.90;10.40;;;;;;;31.80;82.88;100825.78;1711584;82;21025;-85
2021/07/28 12:41:02;;;;;;;20.05;10.50;;;;;;;31.86;81.45;100822.90;1697612;83;21108;-88
2021/07/28 12:43:32;;;;;;;13.03;9.00;;;;;;;31.96;84.85;100824.08;1663121;85;21014;-84
2021/07/28 12:46:02;;;;;;;27.32;10.35;;;;;;;31.98;80.29;100820.57;1684032;82;21093;-88
2021/07/28 12:48:33;;;;;;;18.80;10.23;;;;;;;31.93;77.23;100817.30;1691843;82;21014;-84
2021/07/28 12:51:03;;;;;;;25.05;9.93;;;;;;;31.85;79.01;100816.43;1649754;84;21392;-89
2021/07/28 12:53:32;;;;;;;21.27;10.10;;;;;;;31.77;78.69;100817.68;1660807;84;21243;-84
2021/07/28 12:56:00;;;;;;;18.98;9.70;;;;;;;31.69;79.30;100814.89;1686375;82;21169;-85
2021/07/28 12:58:28;;;;;;;23.42;10.88;;;;;;;31.65;85.81;100813.75;1707044;83;21073;-84
2021/07/28 13:01:00;;;;;;;13.95;9.78;;;;;;;31.61;85.70;100808.58;1713865;82;20997;-89
2021/07/28 13:03:28;;;;;;;18.07;10.30;;;;;;;31.57;84.39;100806.13;1720714;82;21064;-89
2021/07/28 13:06:03;;;;;;;16.17;9.85;;;;;;;31.52;80.77;100799.35;1694861;82;21047;-85
2021/07/28 13:08:28;;;;;;;12.75;9.35;;;;;;;31.46;77.59;100801.97;1718787;81;21069;-84
2021/07/28 13:10:55;;;;;;;21.82;9.55;;;;;;;31.41;79.69;100799.73;1681561;83;21014;-87
2021/07/28 13:13:22;;;;;;;23.25;10.28;;;;;;;31.36;82.31;100797.83;1669539;84;21078;-84
2021/07/28 13:15:51;;;;;;;22.62;10.20;;;;;;;31.31;81.18;100791.02;1679175;84;21040;-85
2021/07/28 13:18:19;;;;;;;12.43;9.00;;;;;;;31.27;81.39;100790.71;1673350;84;22035;-84
2021/07/28 13:20:48;;;;;;;12.47;9.18;;;;;;;31.23;80.87;100790.94;1651789;84;21359;-84
2021/07/28 13:23:16;;;;;;;11.10;9.23;;;;;;;31.19;84.00;100789.00;1642316;85;21613;-88
2021/07/28 13:25:45;;;;;;;14.68;9.28;;;;;;;31.15;90.04;100788.14;1672749;85;21550;-86
2021/07/28 13:28:13;;;;;;;20.65;9.68;;;;;;;31.13;93.50;100781.39;1671894;85;21110;-87
2021/07/28 13:30:40;;;;;;;13.00;8.80;;;;;;;31.07;90.22;100783.16;1710483;83;21861;-86
2021/07/28 13:33:07;;;;;;;20.35;9.93;;;;;;;31.03;90.33;100778.02;1707431;82;20991;-88
2021/07/28 13:35:36;;;;;;;23.15;8.83;;;;;;;30.96;88.12;100779.53;1675695;83;21039;-87
2021/07/28 13:38:03;;;;;;;19.70;9.73;;;;;;;30.89;89.10;100781.59;1660839;84;21105;-89
2021/07/28 13:40:30;;;;;;;19.87;10.18;;;;;;;30.82;93.28;100771.00;1634307;86;20985;-83
2021/07/28 13:43:00;;;;;;;20.75;10.30;;;;;;;30.74;94.01;100768.73;1643334;83;21112;-87
2021/07/28 13:45:26;;;;;;;19.92;9.90;;;;;;;30.66;94.91;100774.02;1672428;83;21168;-84
2021/07/28 13:47:53;;;;;;;16.52;10.58;;;;;;;30.57;97.70;100764.73;1642755;86;21078;-86
2021/07/28 13:50:21;;;;;;;19.80;10.78;;;;;;;30.49;98.79;100759.20;1679437;83;21018;-86
2021/07/28 13:52:49;;;;;;;22.00;10.58;;;;;;;30.44;100.00;100761.02;1648468;85;21579;-88
2021/07/28 13:55:18;;;;;;;175.65;22.22;;;;;;;30.37;100.00;100757.15;1673397;84;21171;-84
2021/07/28 13:57:45;;;;;;;41.33;12.10;;;;;;;30.32;100.00;100753.05;1671443;83;21548;-83
2021/07/28 14:00:16;;;;;;;53.92;13.40;;;;;;;30.27;98.95;100759.15;1677767;83;21045;-86
2021/07/28 14:02:45;;;;;;;49.30;12.00;;;;;;;30.23;99.63;100751.82;1652835;84;21096;-88
2021/07/28 14:05:15;;;;;;;32.58;12.95;;;;;;;30.20;99.23;100747.76;1678339;83;21029;-87
2021/07/28 14:07:42;;;;;;;37.65;11.78;;;;;;;30.20;100.00;100745.08;1675728;83;21167;-90
2021/07/28 14:10:10;;;;;;;25.45;11.75;;;;;;;30.21;100.00;100750.19;1645657;85;21034;-86
2021/07/28 14:12:42;;;;;;;30.15;12.20;;;;;;;30.22;100.00;100744.28;1632107;86;21049;-90
2021/07/28 14:15:12;;;;;;;33.78;12.07;;;;;;;30.21;100.00;100747.51;1629922;86;21461;-88
2021/07/28 14:17:39;;;;;;;26.80;11.53;;;;;;;30.24;100.00;100745.40;1648595;86;21018;-88
2021/07/28 14:20:09;;;;;;;20.08;11.25;;;;;;;30.24;98.47;100744.05;1637063;85;21017;-88
2021/07/28 14:22:36;;;;;;;22.95;10.75;;;;;;;30.21;100.00;100748.85;1709099;82;21049;-88
2021/07/28 14:25:05;;;;;;;27.42;11.48;;;;;;;30.20;100.00;100746.41;1721592;81;21021;-84
2021/07/28 14:27:32;;;;;;;19.48;10.85;;;;;;;30.19;98.72;100746.13;1740999;82;21057;-86
2021/07/28 14:29:59;;;;;;;18.02;10.93;;;;;;;30.25;98.70;100745.66;1719891;81;21906;-82